Time;durP1;ratioP1;P1;durP2;ratioP2;P2;SDS_P1;SDS_P2;PMS_P1;PMS_P2;Temp;Humidity;BMP_temperature;BMP_pressure;BME280_temperature;BME280_humidity;BME280_pressure;Samples;Min_cycle;Max_cycle;Signal;HPM_P1;HPM_P2
2022/09/23 00:01:13;;;;;;;;;;;7.70;99.90;;;;;;5075843;28;19908;-63
2022/09/23 00:03:40;;;;;;;;;;;7.70;99.90;;;;;;5075827;28;19919;-63
2022/09/23 00:06:09;;;;;;;;;;;7.70;99.90;;;;;;5075495;28;19971;-63
2022/09/23 00:08:35;;;;;;;;;;;7.60;99.90;;;;;;5075197;28;19928;-63
2022/09/23 00:11:05;;;;;;;;;;;7.70;99.90;;;;;;5075455;28;19912;-63
2022/09/23 00:13:31;;;;;;;;;;;7.70;99.90;;;;;;5075619;28;20277;-63
2022/09/23 00:15:56;;;;;;;;;;;7.60;99.90;;;;;;5075402;28;19943;-63
2022/09/23 00:18:22;;;;;;;;;;;7.60;99.90;;;;;;5075213;28;19974;-63
2022/09/23 00:20:47;;;;;;;;;;;7.70;99.90;;;;;;5057374;28;19908;-63
2022/09/23 00:23:13;;;;;;;;;;;7.70;99.90;;;;;;5075399;28;19909;-63
2022/09/23 00:25:39;;;;;;;;;;;7.70;99.90;;;;;;5075403;28;19908;-62
2022/09/23 00:28:04;;;;;;;;;;;7.60;99.90;;;;;;5074990;28;20361;-64
2022/09/23 00:30:31;;;;;;;;;;;7.60;99.90;;;;;;5074002;28;19915;-63
2022/09/23 00:32:56;;;;;;;;;;;7.60;99.90;;;;;;5075238;28;20374;-63
2022/09/23 00:35:22;;;;;;;;;;;7.50;99.90;;;;;;5074844;28;19909;-63
2022/09/23 00:37:47;;;;;;;;;;;7.50;99.90;;;;;;5075131;28;19963;-62
2022/09/23 00:40:13;;;;;;;;;;;7.50;99.90;;;;;;5074825;28;19999;-62
2022/09/23 00:42:45;;;;;;;;;;;7.50;99.90;;;;;;5074977;28;19909;-62
2022/09/23 00:45:10;;;;;;;;;;;7.40;99.90;;;;;;5074994;28;19908;-62
2022/09/23 00:47:40;;;;;;;;;;;7.40;99.90;;;;;;5074867;28;20394;-62
2022/09/23 00:50:25;;;;;;;;;;;7.40;99.90;;;;;;5074561;28;19916;-62
2022/09/23 00:52:53;;;;;;;;;;;7.40;99.90;;;;;;5074517;28;19913;-62
2022/09/23 00:55:24;;;;;;;;;;;7.40;99.90;;;;;;5074548;28;19946;-62
2022/09/23 00:57:50;;;;;;;;;;;7.40;99.90;;;;;;5074747;28;19908;-63
2022/09/23 01:00:16;;;;;;;;;;;7.40;99.90;;;;;;5074423;28;19908;-62
2022/09/23 01:02:41;;;;;;;;;;;7.40;99.90;;;;;;5074660;28;19931;-62
2022/09/23 01:05:07;;;;;;;;;;;7.40;99.90;;;;;;5074364;28;19908;-62
2022/09/23 01:07:33;;;;;;;;;;;7.50;99.90;;;;;;5074127;28;19921;-62
2022/09/23 01:09:59;;;;;;;;;;;7.50;99.90;;;;;;5074472;28;20341;-62
2022/09/23 01:12:35;;;;;;;;;;;7.50;99.90;;;;;;5074408;28;19909;-61
2022/09/23 01:18:06;;;;;;;;;;;7.60;99.90;;;;;;5071126;28;20272;-62
2022/09/23 01:20:51;;;;;;;;;;;7.60;99.90;;;;;;5071013;28;20012;-61
2022/09/23 01:23:37;;;;;;;;;;;7.60;99.90;;;;;;5070930;28;19913;-62
2022/09/23 01:26:22;;;;;;;;;;;7.70;99.90;;;;;;5070788;28;19917;-62
2022/09/23 01:29:07;;;;;;;;;;;7.70;99.90;;;;;;5070811;28;19915;-62
2022/09/23 01:31:42;;;;;;;;;;;7.70;99.90;;;;;;5070888;28;19931;-62
2022/09/23 01:34:23;;;;;;;;;;;7.70;99.90;;;;;;5070922;28;19909;-62
2022/09/23 01:36:52;;;;;;;;;;;7.70;99.90;;;;;;5070827;28;20382;-62
2022/09/23 01:39:37;;;;;;;;;;;7.80;99.90;;;;;;5070552;28;19952;-62
2022/09/23 01:42:22;;;;;;;;;;;7.70;99.90;;;;;;5070485;28;19909;-62
2022/09/23 01:44:57;;;;;;;;;;;7.70;99.90;;;;;;5070532;28;19943;-62
2022/09/23 01:47:29;;;;;;;;;;;7.70;99.90;;;;;;5070691;28;19908;-62
2022/09/23 01:50:00;;;;;;;;;;;7.70;99.90;;;;;;5070367;28;19943;-62
2022/09/23 01:52:29;;;;;;;;;;;7.70;99.90;;;;;;5070565;28;20378;-62
2022/09/23 01:54:59;;;;;;;;;;;7.70;99.90;;;;;;5070509;28;20367;-62
2022/09/23 01:57:30;;;;;;;;;;;7.70;99.90;;;;;;5085863;28;19912;-62
2022/09/23 02:00:03;;;;;;;;;;;7.70;99.90;;;;;;5070196;28;19909;-62
2022/09/23 02:02:31;;;;;;;;;;;7.70;99.90;;;;;;5070391;28;19909;-62
2022/09/23 02:05:01;;;;;;;;;;;7.70;99.90;;;;;;5070301;28;19916;-62
2022/09/23 02:07:30;;;;;;;;;;;7.70;99.90;;;;;;5069986;28;19915;-62
2022/09/23 02:10:02;;;;;;;;;;;7.70;99.90;;;;;;5070175;28;20383;-62
2022/09/23 02:12:28;;;;;;;;;;;7.70;99.90;;;;;;5069903;28;19913;-62
2022/09/23 02:14:59;;;;;;;;;;;7.70;99.90;;;;;;5069806;28;20286;-62
2022/09/23 02:17:31;;;;;;;;;;;7.70;99.90;;;;;;5087370;28;19954;-62
2022/09/23 02:20:00;;;;;;;;;;;7.70;99.90;;;;;;5090339;28;19947;-62
2022/09/23 02:22:28;;;;;;;;;;;7.70;99.90;;;;;;5090253;28;19991;-62
2022/09/23 02:24:55;;;;;;;;;;;7.70;99.90;;;;;;5089940;28;19908;-62
2022/09/23 02:27:40;;;;;;;;;;;7.70;99.90;;;;;;5086579;28;20070;-62
2022/09/23 02:30:16;;;;;;;;;;;7.70;99.90;;;;;;5076183;28;19958;-62
2022/09/23 02:32:53;;;;;;;;;;;7.70;99.90;;;;;;5076548;28;20358;-61
2022/09/23 02:35:24;;;;;;;;;;;7.60;99.90;;;;;;5076128;28;19915;-62
2022/09/23 02:38:09;;;;;;;;;;;7.60;99.90;;;;;;5076458;28;20046;-62
2022/09/23 02:40:39;;;;;;;;;;;7.60;99.90;;;;;;5076071;28;19908;-62
2022/09/23 02:43:07;;;;;;;;;;;7.60;99.90;;;;;;5076330;28;20423;-62
2022/09/23 02:45:32;;;;;;;;;;;7.70;99.90;;;;;;5076065;28;19909;-62
2022/09/23 02:48:17;;;;;;;;;;;7.70;99.90;;;;;;5076054;28;19909;-62
2022/09/23 02:50:43;;;;;;;;;;;7.60;99.90;;;;;;5076219;28;19991;-62
2022/09/23 02:53:09;;;;;;;;;;;7.60;99.90;;;;;;5076170;28;19914;-62
2022/09/23 02:55:34;;;;;;;;;;;7.60;99.90;;;;;;5075797;28;19909;-62
2022/09/23 02:58:01;;;;;;;;;;;7.50;99.90;;;;;;5075810;28;19916;-62
2022/09/23 03:00:46;;;;;;;;;;;7.50;99.90;;;;;;5076064;28;19916;-62
2022/09/23 03:03:22;;;;;;;;;;;7.50;99.90;;;;;;5075544;28;19915;-62
2022/09/23 03:05:51;;;;;;;;;;;7.40;99.90;;;;;;5075590;28;19912;-62
2022/09/23 03:08:24;;;;;;;;;;;7.40;99.90;;;;;;5075643;28;19955;-62
2022/09/23 03:10:54;;;;;;;;;;;7.40;99.90;;;;;;5075833;28;19912;-62
2022/09/23 03:13:28;;;;;;;;;;;7.40;99.90;;;;;;5075515;28;19923;-62
2022/09/23 03:18:42;;;;;;;;;;;7.30;99.90;;;;;;5091166;27;20294;-61
2022/09/23 03:21:14;;;;;;;;;;;7.40;99.90;;;;;;5124016;28;19934;-61
2022/09/23 03:23:41;;;;;;;;;;;7.30;99.90;;;;;;5091356;28;19913;-61
2022/09/23 03:26:10;;;;;;;;;;;7.30;99.90;;;;;;5091364;28;19912;-61
2022/09/23 03:28:36;;;;;;;;;;;7.30;99.90;;;;;;5091030;28;19915;-61
2022/09/23 03:31:02;;;;;;;;;;;7.30;99.90;;;;;;5091198;28;19923;-61
2022/09/23 03:33:29;;;;;;;;;;;7.30;99.90;;;;;;5091197;28;20372;-61
2022/09/23 03:38:49;;;;;;;;;;;7.30;99.90;;;;;;5090618;28;20286;-61
2022/09/23 03:41:21;;;;;;;;;;;7.30;99.90;;;;;;5090992;28;19909;-61
2022/09/23 03:43:47;;;;;;;;;;;7.20;99.90;;;;;;5089418;28;19908;-61
2022/09/23 03:46:15;;;;;;;;;;;7.20;99.90;;;;;;5090635;28;20394;-61
2022/09/23 03:48:41;;;;;;;;;;;7.20;99.90;;;;;;5090884;28;20381;-61
2022/09/23 03:51:16;;;;;;;;;;;7.20;99.90;;;;;;5090786;28;19908;-61
2022/09/23 03:53:42;;;;;;;;;;;7.20;99.90;;;;;;5090811;28;19908;-61
2022/09/23 03:56:10;;;;;;;;;;;7.20;99.90;;;;;;5090770;28;19915;-61
2022/09/23 03:58:36;;;;;;;;;;;7.20;99.90;;;;;;5090709;28;19961;-61
2022/09/23 04:01:02;;;;;;;;;;;7.20;99.90;;;;;;5090662;28;19909;-61
2022/09/23 04:03:28;;;;;;;;;;;7.20;99.90;;;;;;5090633;28;19909;-62
2022/09/23 04:05:54;;;;;;;;;;;7.10;99.90;;;;;;5090358;28;19974;-61
2022/09/23 04:08:19;;;;;;;;;;;7.10;99.90;;;;;;5090261;28;20370;-61
2022/09/23 04:10:44;;;;;;;;;;;7.10;99.90;;;;;;5090185;28;19908;-61
2022/09/23 04:13:10;;;;;;;;;;;7.10;99.90;;;;;;5090140;28;19909;-61
2022/09/23 04:15:36;;;;;;;;;;;7.20;99.90;;;;;;5090399;28;19909;-61
2022/09/23 04:18:01;;;;;;;;;;;7.20;99.90;;;;;;5105408;28;19920;-61
2022/09/23 04:20:28;;;;;;;;;;;7.20;99.90;;;;;;5110627;28;19908;-61
2022/09/23 04:22:53;;;;;;;;;;;7.20;99.90;;;;;;5110610;28;19947;-62
2022/09/23 04:25:19;;;;;;;;;;;7.20;99.90;;;;;;5110514;28;19909;-61
2022/09/23 04:27:44;;;;;;;;;;;7.20;99.90;;;;;;5110125;28;20260;-61
2022/09/23 04:30:10;;;;;;;;;;;7.20;99.90;;;;;;5096354;28;19912;-62
2022/09/23 04:32:36;;;;;;;;;;;7.20;99.90;;;;;;5096828;28;19915;-62
2022/09/23 04:35:02;;;;;;;;;;;7.20;99.90;;;;;;5096770;28;19908;-61
2022/09/23 04:37:28;;;;;;;;;;;7.20;99.90;;;;;;5096421;28;20293;-62
2022/09/23 04:39:55;;;;;;;;;;;7.10;99.90;;;;;;5096699;28;19914;-61
2022/09/23 04:42:20;;;;;;;;;;;7.10;99.90;;;;;;5096624;28;19944;-61
2022/09/23 04:44:46;;;;;;;;;;;7.00;99.90;;;;;;5096597;28;19966;-61
2022/09/23 04:47:11;;;;;;;;;;;6.90;99.90;;;;;;5096483;28;20324;-61
2022/09/23 04:49:37;;;;;;;;;;;6.90;99.90;;;;;;5096255;28;19909;-61
2022/09/23 04:52:04;;;;;;;;;;;6.90;99.90;;;;;;5096439;28;19908;-61
2022/09/23 04:54:29;;;;;;;;;;;6.80;99.90;;;;;;5096383;28;20010;-61
2022/09/23 04:56:55;;;;;;;;;;;6.80;99.90;;;;;;5096267;28;20454;-61
2022/09/23 04:59:21;;;;;;;;;;;6.80;99.90;;;;;;5096304;28;20294;-61
2022/09/23 05:01:46;;;;;;;;;;;6.80;99.90;;;;;;5096276;28;19908;-61
2022/09/23 05:04:12;;;;;;;;;;;6.80;99.90;;;;;;5096231;28;20428;-62
2022/09/23 05:06:38;;;;;;;;;;;6.80;99.90;;;;;;5096172;28;19908;-61
2022/09/23 05:09:05;;;;;;;;;;;6.80;99.90;;;;;;5096132;28;19908;-61
2022/09/23 05:11:30;;;;;;;;;;;6.80;99.90;;;;;;5096052;28;20350;-62
2022/09/23 05:13:56;;;;;;;;;;;6.80;99.90;;;;;;5095736;28;19943;-61
2022/09/23 05:16:22;;;;;;;;;;;6.80;99.90;;;;;;5095388;28;19991;-61
2022/09/23 05:18:49;;;;;;;;;;;6.80;99.90;;;;;;5095919;28;19908;-61
2022/09/23 05:21:15;;;;;;;;;;;6.70;99.90;;;;;;5095875;28;20366;-61
2022/09/23 05:23:41;;;;;;;;;;;6.80;99.90;;;;;;5095823;28;19947;-61
2022/09/23 05:26:08;;;;;;;;;;;6.80;99.90;;;;;;5095503;28;19987;-61
2022/09/23 05:28:34;;;;;;;;;;;6.80;99.90;;;;;;5095701;28;19931;-61
2022/09/23 05:31:01;;;;;;;;;;;6.90;99.90;;;;;;5095680;28;19958;-61
2022/09/23 05:33:27;;;;;;;;;;;6.90;99.90;;;;;;5095651;28;20340;-62
2022/09/23 05:35:52;;;;;;;;;;;6.90;99.90;;;;;;5095299;28;19908;-61
2022/09/23 05:38:18;;;;;;;;;;;7.00;99.90;;;;;;5095197;28;19913;-61
2022/09/23 05:40:43;;;;;;;;;;;7.00;99.90;;;;;;5094500;28;19908;-62
2022/09/23 05:43:09;;;;;;;;;;;7.10;99.90;;;;;;5095452;28;20062;-61
2022/09/23 05:45:35;;;;;;;;;;;7.10;99.90;;;;;;5077053;28;19909;-61
2022/09/23 05:48:00;;;;;;;;;;;7.30;99.90;;;;;;5095353;28;19908;-61
2022/09/23 05:50:26;;;;;;;;;;;7.30;99.90;;;;;;5095341;28;19908;-61
2022/09/23 05:52:51;;;;;;;;;;;7.40;99.90;;;;;;5077136;28;19909;-62
2022/09/23 05:55:16;;;;;;;;;;;7.50;99.90;;;;;;5095174;28;20347;-61
2022/09/23 05:57:42;;;;;;;;;;;7.60;99.90;;;;;;5095134;28;20271;-61
2022/09/23 06:00:08;;;;;;;;;;;7.80;99.90;;;;;;5094606;28;20335;-61
2022/09/23 06:02:33;;;;;;;;;;;7.90;99.90;;;;;;5083490;28;20008;-62
2022/09/23 06:04:59;;;;;;;;;;;8.10;99.90;;;;;;5080464;28;19916;-62
2022/09/23 06:07:24;;;;;;;;;;;8.30;99.90;;;;;;5063400;28;19974;-61
2022/09/23 06:09:51;;;;;;;;;;;8.50;99.90;;;;;;5087341;28;20287;-61
2022/09/23 06:12:17;;;;;;;;;;;8.60;99.90;;;;;;5094453;28;19982;-61
2022/09/23 06:14:42;;;;;;;;;;;8.80;99.90;;;;;;5076691;28;19912;-61
2022/09/23 06:17:08;;;;;;;;;;;9.00;99.90;;;;;;5076027;28;19920;-62
2022/09/23 06:19:33;;;;;;;;;;;9.40;99.90;;;;;;5092194;28;19912;-62
2022/09/23 06:21:59;;;;;;;;;;;10.10;99.90;;;;;;5095088;28;20413;-62
2022/09/23 06:24:24;;;;;;;;;;;11.10;99.90;;;;;;5093817;28;19912;-62
2022/09/23 06:26:49;;;;;;;;;;;12.80;99.90;;;;;;5095936;28;19916;-61
2022/09/23 06:29:17;;;;;;;;;;;14.30;99.90;;;;;;5094331;28;19915;-62
2022/09/23 06:31:42;;;;;;;;;;;15.70;99.90;;;;;;5094503;28;20386;-62
2022/09/23 06:34:08;;;;;;;;;;;;;;;;;;5075815;28;19951;-62
2022/09/23 06:36:34;;;;;;;;;;;16.40;99.90;;;;;;5091805;28;19943;-61
2022/09/23 06:39:01;;;;;;;;;;;16.20;99.90;;;;;;5093199;28;19908;-61
2022/09/23 06:41:26;;;;;;;;;;;15.40;99.90;;;;;;5094417;28;20370;-62
2022/09/23 06:43:52;;;;;;;;;;;14.80;99.90;;;;;;5094235;28;19915;-61
2022/09/23 06:46:19;;;;;;;;;;;14.40;99.90;;;;;;5059469;28;19919;-63
2022/09/23 06:48:45;;;;;;;;;;;14.50;99.90;;;;;;5085653;28;19927;-62
2022/09/23 06:51:17;;;;;;;;;;;14.70;99.90;;;;;;5093899;28;19908;-62
2022/09/23 06:53:44;;;;;;;;;;;14.50;99.90;;;;;;5093859;28;20034;-62
2022/09/23 06:56:10;;;;;;;;;;;14.60;99.90;;;;;;5087500;28;19912;-62
2022/09/23 06:58:36;;;;;;;;;;;15.10;99.90;;;;;;5090771;28;19922;-62
2022/09/23 07:01:04;;;;;;;;;;;15.80;99.90;;;;;;5094068;28;19995;-62
2022/09/23 07:03:30;;;;;;;;;;;16.40;99.90;;;;;;5094053;28;19922;-62
2022/09/23 07:05:56;;;;;;;;;;;;;;;;;;5092027;28;20012;-62
2022/09/23 07:08:22;;;;;;;;;;;17.80;99.90;;;;;;5093621;28;20374;-62
2022/09/23 07:10:51;;;;;;;;;;;18.20;99.90;;;;;;5082344;28;19919;-61
2022/09/23 07:13:17;;;;;;;;;;;18.50;99.90;;;;;;5088947;28;19916;-61
2022/09/23 07:15:47;;;;;;;;;;;18.40;99.90;;;;;;5092243;28;20404;-61
2022/09/23 07:18:13;;;;;;;;;;;;;;;;;;5080972;28;20353;-61
2022/09/23 07:20:39;;;;;;;;;;;18.70;99.90;;;;;;5092299;28;19963;-62
2022/09/23 07:23:04;;;;;;;;;;;19.40;99.90;;;;;;5092955;28;20324;-61
2022/09/23 07:25:32;;;;;;;;;;;19.40;99.90;;;;;;5080186;28;20003;-62
2022/09/23 07:27:59;;;;;;;;;;;19.00;99.90;;;;;;5085379;28;19912;-63
2022/09/23 07:30:25;;;;;;;;;;;19.50;99.90;;;;;;5091680;28;20439;-63
2022/09/23 07:32:51;;;;;;;;;;;20.30;98.70;;;;;;5082057;28;19999;-62
2022/09/23 07:35:17;;;;;;;;;;;19.80;98.80;;;;;;5086212;28;19919;-62
2022/09/23 07:37:43;;;;;;;;;;;19.40;99.20;;;;;;5089475;28;19923;-62
2022/09/23 07:40:09;;;;;;;;;;;19.60;99.00;;;;;;5088237;28;19909;-62
2022/09/23 07:42:34;;;;;;;;;;;20.40;97.60;;;;;;5093687;28;20385;-62
2022/09/23 07:45:01;;;;;;;;;;;20.00;99.00;;;;;;5086924;28;19916;-63
2022/09/23 07:47:26;;;;;;;;;;;19.60;98.60;;;;;;5093237;28;20421;-62
2022/09/23 07:49:53;;;;;;;;;;;18.80;99.90;;;;;;5080503;28;20043;-62
2022/09/23 07:52:19;;;;;;;;;;;19.40;99.90;;;;;;5088385;28;19962;-62
2022/09/23 07:54:45;;;;;;;;;;;19.40;99.90;;;;;;5093485;28;19908;-62
2022/09/23 07:57:11;;;;;;;;;;;19.70;99.90;;;;;;5082128;28;19920;-62
2022/09/23 07:59:36;;;;;;;;;;;20.40;97.70;;;;;;5092091;28;19977;-62
2022/09/23 08:02:02;;;;;;;;;;;19.40;99.40;;;;;;5070231;28;19912;-63
2022/09/23 08:04:29;;;;;;;;;;;19.00;99.90;;;;;;5094668;28;19920;-63
2022/09/23 08:06:59;;;;;;;;;;;18.70;99.90;;;;;;5097037;28;19915;-64
2022/09/23 08:09:26;;;;;;;;;;;18.80;99.90;;;;;;5096460;28;19995;-65
2022/09/23 08:11:51;;;;;;;;;;;18.30;99.90;;;;;;5096580;28;19912;-66
2022/09/23 08:14:17;;;;;;;;;;;17.90;99.90;;;;;;5096487;28;19934;-65
2022/09/23 08:16:44;;;;;;;;;;;18.00;99.90;;;;;;5096158;28;19924;-66
2022/09/23 08:19:09;;;;;;;;;;;17.70;99.90;;;;;;5078259;28;19957;-65
2022/09/23 08:21:37;;;;;;;;;;;17.70;99.90;;;;;;5096628;28;19991;-66
2022/09/23 08:24:04;;;;;;;;;;;18.50;99.90;;;;;;5095263;28;19912;-66
2022/09/23 08:26:33;;;;;;;;;;;19.00;99.90;;;;;;5092535;28;20056;-66
2022/09/23 08:28:58;;;;;;;;;;;18.90;99.90;;;;;;5096907;28;19908;-65
2022/09/23 08:31:24;;;;;;;;;;;19.10;99.90;;;;;;5096106;28;19912;-65
2022/09/23 08:33:57;;;;;;;;;;;19.40;99.90;;;;;;5094416;28;20010;-65
2022/09/23 08:36:23;;;;;;;;;;;19.00;99.90;;;;;;5093912;28;19912;-65
2022/09/23 08:38:49;;;;;;;;;;;19.40;99.90;;;;;;5095659;28;19912;-65
2022/09/23 08:41:21;;;;;;;;;;;19.40;99.90;;;;;;5090363;28;19912;-65
2022/09/23 08:43:49;;;;;;;;;;;19.50;99.90;;;;;;5096537;28;19908;-64
2022/09/23 08:46:19;;;;;;;;;;;19.40;99.90;;;;;;5096069;28;20016;-64
2022/09/23 08:48:45;;;;;;;;;;;19.50;99.90;;;;;;5096116;28;19940;-64
2022/09/23 08:51:12;;;;;;;;;;;19.90;99.90;;;;;;5096061;28;19916;-64
2022/09/23 08:53:39;;;;;;;;;;;19.60;99.90;;;;;;5085863;28;19912;-64
2022/09/23 08:56:06;;;;;;;;;;;19.40;99.90;;;;;;5095414;28;20383;-65
2022/09/23 08:58:39;;;;;;;;;;;19.40;99.90;;;;;;5095372;28;19916;-65
2022/09/23 09:01:25;;;;;;;;;;;19.10;99.90;;;;;;5078137;28;19915;-65
2022/09/23 09:03:52;;;;;;;;;;;19.40;99.90;;;;;;5075625;28;19916;-65
2022/09/23 09:06:21;;;;;;;;;;;20.10;99.90;;;;;;5075564;28;19957;-65
2022/09/23 09:08:53;;;;;;;;;;;20.00;99.90;;;;;;5091308;28;19962;-65
2022/09/23 09:11:22;;;;;;;;;;;20.00;99.90;;;;;;5075753;28;20260;-65
2022/09/23 09:14:07;;;;;;;;;;;20.10;99.90;;;;;;5075636;28;19908;-65
2022/09/23 09:16:53;;;;;;;;;;;20.00;99.90;;;;;;5075126;28;19916;-65
2022/09/23 09:19:19;;;;;;;;;;;20.10;99.90;;;;;;5075351;28;19923;-65
2022/09/23 09:21:46;;;;;;;;;;;19.70;99.90;;;;;;5091352;28;19919;-65
2022/09/23 09:24:16;;;;;;;;;;;19.50;99.90;;;;;;5095649;28;19943;-65
2022/09/23 09:26:41;;;;;;;;;;;19.30;99.90;;;;;;5090571;28;19912;-64
2022/09/23 09:29:16;;;;;;;;;;;18.90;99.90;;;;;;5095215;28;20273;-64
2022/09/23 09:31:44;;;;;;;;;;;18.70;99.90;;;;;;5095295;28;19969;-64
2022/09/23 09:34:30;;;;;;;;;;;18.60;99.90;;;;;;5085848;28;19916;-66
2022/09/23 09:37:15;;;;;;;;;;;18.60;99.90;;;;;;5094441;28;19912;-65
2022/09/23 09:39:40;;;;;;;;;;;18.50;99.90;;;;;;5089047;28;20297;-66
2022/09/23 09:42:10;;;;;;;;;;;18.40;99.90;;;;;;5094772;28;19908;-66
2022/09/23 09:44:41;;;;;;;;;;;18.30;99.90;;;;;;5092334;28;19920;-66
2022/09/23 09:47:27;;;;;;;;;;;18.20;99.90;;;;;;5074944;28;19909;-66
2022/09/23 09:50:02;;;;;;;;;;;18.30;99.90;;;;;;5084171;28;19909;-65
2022/09/23 09:52:28;;;;;;;;;;;18.50;99.90;;;;;;5088736;28;20394;-65
2022/09/23 09:54:58;;;;;;;;;;;18.20;99.90;;;;;;5062113;28;19916;-65
2022/09/23 09:57:30;;;;;;;;;;;18.30;99.90;;;;;;5088087;28;19930;-65
2022/09/23 09:59:56;;;;;;;;;;;18.40;99.90;;;;;;5076943;28;20037;-65
2022/09/23 10:02:24;;;;;;;;;;;18.60;99.90;;;;;;5094929;28;19908;-66
2022/09/23 10:05:05;;;;;;;;;;;18.70;99.90;;;;;;5094836;28;20397;-66
2022/09/23 10:07:32;;;;;;;;;;;19.00;99.90;;;;;;5094696;28;19919;-66
2022/09/23 10:10:09;;;;;;;;;;;18.90;99.90;;;;;;5093972;28;19958;-66
2022/09/23 10:12:42;;;;;;;;;;;19.10;99.30;;;;;;5094361;28;19919;-66
2022/09/23 10:15:36;;;;;;;;;;;19.10;99.90;;;;;;5094647;28;20002;-66
2022/09/23 10:18:02;;;;;;;;;;;19.20;99.10;;;;;;5076076;28;19932;-66
2022/09/23 10:20:34;;;;;;;;;;;19.10;99.80;;;;;;5093860;28;20375;-65
2022/09/23 10:23:04;;;;;;;;;;;18.90;99.30;;;;;;5086932;28;19956;-66
2022/09/23 10:25:30;;;;;;;;;;;18.70;99.70;;;;;;5073977;28;20006;-65
2022/09/23 10:27:55;;;;;;;;;;;18.60;99.40;;;;;;5079358;28;20409;-65
2022/09/23 10:30:22;;;;;;;;;;;18.60;99.40;;;;;;5084380;28;19923;-66
2022/09/23 10:32:49;;;;;;;;;;;18.50;99.90;;;;;;5092263;28;20030;-66
2022/09/23 10:35:16;;;;;;;;;;;18.30;99.90;;;;;;5089578;28;20393;-65
2022/09/23 10:37:58;;;;;;;;;;;18.70;99.90;;;;;;5094343;28;20007;-65
2022/09/23 10:46:49;;;;;;;;;;;19.00;99.90;;;;;;5079670;28;20005;-65
2022/09/23 10:52:15;;;;;;;;;;;18.70;99.90;;;;;;5070848;28;19912;-66
2022/09/23 10:54:56;;;;;;;;;;;18.90;99.80;;;;;;5044847;28;20372;-66
2022/09/23 10:57:39;;;;;;;;;;;19.10;99.90;;;;;;5048140;28;19921;-65
2022/09/23 11:00:14;;;;;;;;;;;19.00;99.90;;;;;;5049450;28;20430;-66
2022/09/23 11:03:00;;;;;;;;;;;19.00;99.90;;;;;;5032471;28;19916;-66
2022/09/23 11:05:45;;;;;;;;;;;19.20;99.90;;;;;;5048325;28;19917;-65
2022/09/23 11:08:30;;;;;;;;;;;19.10;99.90;;;;;;5048148;28;19913;-66
2022/09/23 11:11:16;;;;;;;;;;;19.00;99.90;;;;;;5042466;28;19963;-65
2022/09/23 11:14:02;;;;;;;;;;;19.00;99.90;;;;;;5047572;28;19920;-67
2022/09/23 11:16:37;;;;;;;;;;;18.90;99.90;;;;;;5052785;28;19920;-65
2022/09/23 11:19:10;;;;;;;;;;;18.80;99.90;;;;;;5057201;28;20362;-65
2022/09/23 11:21:57;;;;;;;;;;;18.90;99.90;;;;;;5047136;28;19917;-65
2022/09/23 11:24:49;;;;;;;;;;;19.00;99.90;;;;;;5060760;28;19913;-65
2022/09/23 11:27:35;;;;;;;;;;;18.90;99.90;;;;;;5050240;28;19916;-65
2022/09/23 11:30:18;;;;;;;;;;;18.80;99.70;;;;;;5049931;28;19924;-65
2022/09/23 11:33:04;;;;;;;;;;;18.80;99.90;;;;;;5050319;28;19909;-65
2022/09/23 11:35:32;;;;;;;;;;;18.90;99.90;;;;;;5045890;28;20368;-65
2022/09/23 11:38:10;;;;;;;;;;;19.00;99.90;;;;;;5041794;28;19987;-65
2022/09/23 11:40:36;;;;;;;;;;;18.90;99.60;;;;;;5049998;28;20323;-65
2022/09/23 11:43:06;;;;;;;;;;;18.90;99.90;;;;;;5049774;28;20333;-65
2022/09/23 11:45:35;;;;;;;;;;;19.00;99.90;;;;;;5050232;28;19909;-65
2022/09/23 11:48:05;;;;;;;;;;;19.40;99.90;;;;;;5049674;28;19913;-65
2022/09/23 11:50:35;;;;;;;;;;;19.60;98.60;;;;;;5058137;28;19920;-65
2022/09/23 11:53:11;;;;;;;;;;;19.80;97.50;;;;;;5069895;28;20394;-65
2022/09/23 11:55:43;;;;;;;;;;;19.60;96.80;;;;;;5068617;28;20432;-65
2022/09/23 11:58:12;;;;;;;;;;;19.50;97.20;;;;;;5069658;28;19908;-65
2022/09/23 12:00:43;;;;;;;;;;;19.30;98.10;;;;;;5069126;28;20023;-65
2022/09/23 12:05:57;;;;;;;;;;;19.80;96.70;;;;;;5070856;28;19920;-66
2022/09/23 12:08:31;;;;;;;;;;;19.80;96.10;;;;;;5066697;28;19913;-66
2022/09/23 12:11:05;;;;;;;;;;;19.80;97.60;;;;;;5069676;28;20425;-66
2022/09/23 12:13:35;;;;;;;;;;;19.70;96.20;;;;;;5064658;28;19960;-65
2022/09/23 12:16:08;;;;;;;;;;;19.50;95.40;;;;;;5061428;28;20408;-65
2022/09/23 12:18:41;;;;;;;;;;;19.50;97.10;;;;;;5057035;28;20363;-66
2022/09/23 12:21:26;;;;;;;;;;;19.80;95.20;;;;;;5060403;28;19917;-65
2022/09/23 12:24:06;;;;;;;;;;;19.70;96.30;;;;;;5068647;28;20336;-65
2022/09/23 12:26:31;;;;;;;;;;;19.80;96.10;;;;;;5068848;28;19921;-65
2022/09/23 12:29:00;;;;;;;;;;;19.80;95.80;;;;;;5079123;28;19920;-65
2022/09/23 12:31:29;;;;;;;;;;;20.20;94.50;;;;;;5070428;28;20272;-65
2022/09/23 12:33:56;;;;;;;;;;;20.10;94.60;;;;;;5068585;28;19908;-65
2022/09/23 12:36:25;;;;;;;;;;;20.00;95.20;;;;;;5068578;28;20493;-65
2022/09/23 12:38:52;;;;;;;;;;;19.90;94.70;;;;;;5084315;28;19959;-65
2022/09/23 12:41:19;;;;;;;;;;;20.10;95.10;;;;;;5068596;28;19908;-64
2022/09/23 12:43:54;;;;;;;;;;;20.00;95.30;;;;;;5068480;28;19913;-65
2022/09/23 12:46:24;;;;;;;;;;;19.70;94.90;;;;;;5068824;28;20422;-65
2022/09/23 12:48:56;;;;;;;;;;;19.80;94.90;;;;;;5070213;28;19916;-65
2022/09/23 12:51:22;;;;;;;;;;;19.90;95.80;;;;;;5070078;28;19909;-65
2022/09/23 12:56:59;;;;;;;;;;;20.10;95.20;;;;;;5071027;28;19913;-66
2022/09/23 12:59:26;;;;;;;;;;;19.90;95.50;;;;;;5071135;28;19917;-66
2022/09/23 13:01:52;;;;;;;;;;;19.90;95.60;;;;;;5071182;28;19912;-65
2022/09/23 13:07:25;;;;;;;;;;;19.90;96.10;;;;;;5070638;28;19971;-66
2022/09/23 13:09:52;;;;;;;;;;;19.80;95.40;;;;;;5070865;28;19916;-66
2022/09/23 13:14:59;;;;;;;;;;;19.80;95.30;;;;;;5152776;27;19999;-65
2022/09/23 13:17:29;;;;;;;;;;;19.60;96.50;;;;;;5152972;27;20334;-65
2022/09/23 13:20:04;;;;;;;;;;;19.60;96.70;;;;;;5152849;27;19914;-65
2022/09/23 13:22:40;;;;;;;;;;;19.90;96.80;;;;;;5152501;27;19930;-65
2022/09/23 13:25:15;;;;;;;;;;;20.00;96.90;;;;;;5152770;27;19908;-65
2022/09/23 13:27:42;;;;;;;;;;;20.20;96.10;;;;;;5152634;27;19970;-65
2022/09/23 13:30:17;;;;;;;;;;;20.30;95.80;;;;;;5134212;27;20342;-65
2022/09/23 13:32:47;;;;;;;;;;;20.20;95.70;;;;;;5152574;27;20354;-65
2022/09/23 13:35:15;;;;;;;;;;;20.20;95.20;;;;;;5152057;27;19908;-65
2022/09/23 13:37:44;;;;;;;;;;;20.20;95.00;;;;;;5152047;27;20344;-65
2022/09/23 13:40:26;;;;;;;;;;;19.90;95.10;;;;;;5152455;27;20018;-65
2022/09/23 13:42:58;;;;;;;;;;;19.80;95.40;;;;;;5152466;27;20288;-65
2022/09/23 13:45:24;;;;;;;;;;;19.80;96.20;;;;;;5152387;27;19914;-65
2022/09/23 13:47:57;;;;;;;;;;;19.90;96.10;;;;;;5152391;27;20354;-65
2022/09/23 13:50:23;;;;;;;;;;;20.00;96.90;;;;;;5152006;27;19907;-65
2022/09/23 13:52:51;;;;;;;;;;;20.00;95.70;;;;;;5152176;27;19915;-65
2022/09/23 13:55:36;;;;;;;;;;;19.90;95.80;;;;;;5152184;27;19962;-65
2022/09/23 13:58:03;;;;;;;;;;;19.80;96.40;;;;;;5152150;27;20392;-65
2022/09/23 14:00:32;;;;;;;;;;;19.60;95.70;;;;;;5152053;27;19907;-65
2022/09/23 14:02:58;;;;;;;;;;;19.50;96.30;;;;;;5151654;27;20416;-65
2022/09/23 14:05:25;;;;;;;;;;;19.50;97.10;;;;;;5151704;27;19945;-65
2022/09/23 14:07:51;;;;;;;;;;;19.50;96.70;;;;;;5151902;27;19907;-65
2022/09/23 14:10:18;;;;;;;;;;;19.40;96.40;;;;;;5151863;27;20072;-65
2022/09/23 14:12:45;;;;;;;;;;;19.40;96.60;;;;;;5151521;27;20001;-65
2022/09/23 14:15:12;;;;;;;;;;;19.10;95.90;;;;;;5151790;27;20254;-65
2022/09/23 14:17:38;;;;;;;;;;;19.20;96.30;;;;;;5151795;27;20424;-65
2022/09/23 14:20:03;;;;;;;;;;;19.20;96.70;;;;;;5151445;27;20002;-65
2022/09/23 14:22:29;;;;;;;;;;;19.20;97.00;;;;;;5151635;27;19907;-65
2022/09/23 14:24:56;;;;;;;;;;;19.20;96.40;;;;;;5126431;27;19956;-65
2022/09/23 14:27:26;;;;;;;;;;;19.10;96.70;;;;;;5137767;27;19976;-65
2022/09/23 14:29:51;;;;;;;;;;;19.10;96.40;;;;;;5137691;27;19908;-65
2022/09/23 14:32:21;;;;;;;;;;;19.20;96.70;;;;;;5137429;27;19918;-65
2022/09/23 14:35:05;;;;;;;;;;;19.20;97.70;;;;;;5118864;27;19922;-65
2022/09/23 14:40:30;;;;;;;;;;;19.10;97.00;;;;;;5137031;27;19914;-65
2022/09/23 14:43:05;;;;;;;;;;;19.20;97.70;;;;;;5137483;27;20385;-65
2022/09/23 14:45:33;;;;;;;;;;;19.10;96.60;;;;;;5137118;27;19915;-65
2022/09/23 14:48:00;;;;;;;;;;;19.20;97.70;;;;;;5137195;27;19914;-65
2022/09/23 14:50:35;;;;;;;;;;;19.20;97.70;;;;;;5137036;27;20366;-65
2022/09/23 14:53:02;;;;;;;;;;;19.10;97.40;;;;;;5137162;27;19911;-65
2022/09/23 14:55:28;;;;;;;;;;;19.10;97.70;;;;;;5137189;27;20381;-65
2022/09/23 14:58:02;;;;;;;;;;;19.10;97.90;;;;;;5137157;27;19908;-65
2022/09/23 15:00:35;;;;;;;;;;;19.10;98.80;;;;;;5136775;27;19911;-65
2022/09/23 15:03:02;;;;;;;;;;;19.00;98.00;;;;;;5137083;27;20391;-65
2022/09/23 15:05:38;;;;;;;;;;;18.90;98.10;;;;;;5137012;27;19907;-65
2022/09/23 15:08:05;;;;;;;;;;;18.80;98.90;;;;;;5136999;27;19908;-65
2022/09/23 15:10:32;;;;;;;;;;;18.90;98.90;;;;;;5136943;27;19907;-65